sensor_id;sensor_type;location;lat;lon;timestamp;temperature;humidity
41630;DHT22;27322;49.488;8.480;2023-11-18T00:00:49;8.90;99.90
41630;DHT22;27322;49.488;8.480;2023-11-18T00:03:16;8.90;99.90
41630;DHT22;27322;49.488;8.480;2023-11-18T00:05:42;8.90;99.90
41630;DHT22;27322;49.488;8.480;2023-11-18T00:08:07;8.90;99.90
41630;DHT22;27322;49.488;8.480;2023-11-18T00:10:33;8.90;99.90
41630;DHT22;27322;49.488;8.480;2023-11-18T00:12:58;8.90;99.90
41630;DHT22;27322;49.488;8.480;2023-11-18T00:15:24;8.90;99.90
41630;DHT22;27322;49.488;8.480;2023-11-18T00:17:50;8.90;99.90
41630;DHT22;27322;49.488;8.480;2023-11-18T00:20:15;8.80;99.90
41630;DHT22;27322;49.488;8.480;2023-11-18T00:22:42;8.80;99.90
41630;DHT22;27322;49.488;8.480;2023-11-18T00:25:08;8.80;99.90
41630;DHT22;27322;49.488;8.480;2023-11-18T00:27:34;8.80;99.90
41630;DHT22;27322;49.488;8.480;2023-11-18T00:30:06;8.80;99.90
41630;DHT22;27322;49.488;8.480;2023-11-18T00:32:37;8.80;99.90
41630;DHT22;27322;49.488;8.480;2023-11-18T00:35:02;8.80;99.90
41630;DHT22;27322;49.488;8.480;2023-11-18T00:37:30;8.80;99.90
41630;DHT22;27322;49.488;8.480;2023-11-18T00:39:56;8.80;99.90
41630;DHT22;27322;49.488;8.480;2023-11-18T00:42:22;8.70;99.90
41630;DHT22;27322;49.488;8.480;2023-11-18T00:44:47;8.70;99.90
41630;DHT22;27322;49.488;8.480;2023-11-18T00:47:13;8.70;99.90
41630;DHT22;27322;49.488;8.480;2023-11-18T00:49:39;8.70;99.90
41630;DHT22;27322;49.488;8.480;2023-11-18T00:52:05;8.70;99.90
41630;DHT22;27322;49.488;8.480;2023-11-18T00:54:31;8.60;99.90
41630;DHT22;27322;49.488;8.480;2023-11-18T00:56:56;8.60;99.90
41630;DHT22;27322;49.488;8.480;2023-11-18T00:59:22;8.60;99.90
41630;DHT22;27322;49.488;8.480;2023-11-18T01:01:47;8.60;99.90
41630;DHT22;27322;49.488;8.480;2023-11-18T01:04:14;8.60;99.90
41630;DHT22;27322;49.488;8.480;2023-11-18T01:06:41;8.50;99.90
41630;DHT22;27322;49.488;8.480;2023-11-18T01:09:07;8.50;99.90
41630;DHT22;27322;49.488;8.480;2023-11-18T01:11:34;8.50;99.90
41630;DHT22;27322;49.488;8.480;2023-11-18T01:14:01;8.40;99.90
41630;DHT22;27322;49.488;8.480;2023-11-18T01:16:27;8.40;99.90
41630;DHT22;27322;49.488;8.480;2023-11-18T01:18:54;8.40;99.90
41630;DHT22;27322;49.488;8.480;2023-11-18T01:21:20;8.40;99.90
41630;DHT22;27322;49.488;8.480;2023-11-18T01:23:45;8.30;99.90
41630;DHT22;27322;49.488;8.480;2023-11-18T01:26:11;8.30;99.90
41630;DHT22;27322;49.488;8.480;2023-11-18T01:28:38;8.30;99.90
41630;DHT22;27322;49.488;8.480;2023-11-18T01:31:07;8.30;99.90
41630;DHT22;27322;49.488;8.480;2023-11-18T01:33:39;8.30;99.90
41630;DHT22;27322;49.488;8.480;2023-11-18T01:36:06;8.20;99.90
41630;DHT22;27322;49.488;8.480;2023-11-18T01:38:34;8.20;99.90
41630;DHT22;27322;49.488;8.480;2023-11-18T01:40:59;8.20;99.90
41630;DHT22;27322;49.488;8.480;2023-11-18T01:43:26;8.20;99.90
41630;DHT22;27322;49.488;8.480;2023-11-18T01:45:51;8.20;99.90
41630;DHT22;27322;49.488;8.480;2023-11-18T01:48:19;8.20;99.90
41630;DHT22;27322;49.488;8.480;2023-11-18T01:50:45;8.20;99.90
41630;DHT22;27322;49.488;8.480;2023-11-18T01:53:12;8.10;99.90
41630;DHT22;27322;49.488;8.480;2023-11-18T01:55:39;8.10;99.90
41630;DHT22;27322;49.488;8.480;2023-11-18T01:58:05;8.10;99.90
41630;DHT22;27322;49.488;8.480;2023-11-18T02:00:41;8.10;99.90
41630;DHT22;27322;49.488;8.480;2023-11-18T02:03:11;8.00;99.90
41630;DHT22;27322;49.488;8.480;2023-11-18T02:05:37;8.00;99.90
41630;DHT22;27322;49.488;8.480;2023-11-18T02:08:04;8.10;99.90
41630;DHT22;27322;49.488;8.480;2023-11-18T02:10:40;8.00;99.90
41630;DHT22;27322;49.488;8.480;2023-11-18T02:13:28;8.00;99.90
41630;DHT22;27322;49.488;8.480;2023-11-18T02:15:56;7.90;99.90
41630;DHT22;27322;49.488;8.480;2023-11-18T02:18:24;7.90;99.90
41630;DHT22;27322;49.488;8.480;2023-11-18T02:20:52;7.90;99.90
41630;DHT22;27322;49.488;8.480;2023-11-18T02:23:17;7.90;99.90
41630;DHT22;27322;49.488;8.480;2023-11-18T02:25:45;7.80;99.90
41630;DHT22;27322;49.488;8.480;2023-11-18T02:28:11;7.80;99.90
41630;DHT22;27322;49.488;8.480;2023-11-18T02:30:36;7.70;99.90
41630;DHT22;27322;49.488;8.480;2023-11-18T02:33:17;7.70;99.90
41630;DHT22;27322;49.488;8.480;2023-11-18T02:35:59;7.70;99.90
41630;DHT22;27322;49.488;8.480;2023-11-18T02:38:33;7.70;99.90
41630;DHT22;27322;49.488;8.480;2023-11-18T02:41:06;7.60;99.90
41630;DHT22;27322;49.488;8.480;2023-11-18T02:43:35;7.60;99.90
41630;DHT22;27322;49.488;8.480;2023-11-18T02:46:04;7.60;99.90
41630;DHT22;27322;49.488;8.480;2023-11-18T02:48:32;7.50;99.90
41630;DHT22;27322;49.488;8.480;2023-11-18T02:51:01;7.50;99.90
41630;DHT22;27322;49.488;8.480;2023-11-18T02:53:27;7.50;99.90
41630;DHT22;27322;49.488;8.480;2023-11-18T02:55:52;7.50;99.90
41630;DHT22;27322;49.488;8.480;2023-11-18T02:58:19;7.40;99.90
41630;DHT22;27322;49.488;8.480;2023-11-18T03:00:45;7.50;99.90
41630;DHT22;27322;49.488;8.480;2023-11-18T03:03:10;7.40;99.90
41630;DHT22;27322;49.488;8.480;2023-11-18T03:05:37;7.40;99.90
41630;DHT22;27322;49.488;8.480;2023-11-18T03:08:03;7.40;99.90
41630;DHT22;27322;49.488;8.480;2023-11-18T03:10:32;7.40;99.90
41630;DHT22;27322;49.488;8.480;2023-11-18T03:13:01;7.40;99.90
41630;DHT22;27322;49.488;8.480;2023-11-18T03:15:26;7.40;99.90
41630;DHT22;27322;49.488;8.480;2023-11-18T03:17:52;7.30;99.90
41630;DHT22;27322;49.488;8.480;2023-11-18T03:20:19;7.40;99.90
41630;DHT22;27322;49.488;8.480;2023-11-18T03:22:49;7.30;99.90
41630;DHT22;27322;49.488;8.480;2023-11-18T03:25:17;7.30;99.90
41630;DHT22;27322;49.488;8.480;2023-11-18T03:27:43;7.30;99.90
41630;DHT22;27322;49.488;8.480;2023-11-18T03:30:10;7.30;99.90
41630;DHT22;27322;49.488;8.480;2023-11-18T03:32:36;7.30;99.90
41630;DHT22;27322;49.488;8.480;2023-11-18T03:35:06;7.30;99.90
41630;DHT22;27322;49.488;8.480;2023-11-18T03:37:35;7.30;99.90
41630;DHT22;27322;49.488;8.480;2023-11-18T03:40:01;7.30;99.90
41630;DHT22;27322;49.488;8.480;2023-11-18T03:42:26;7.40;99.90
41630;DHT22;27322;49.488;8.480;2023-11-18T03:44:52;7.30;99.90
41630;DHT22;27322;49.488;8.480;2023-11-18T03:47:18;7.40;99.90
41630;DHT22;27322;49.488;8.480;2023-11-18T03:49:44;7.40;99.90
41630;DHT22;27322;49.488;8.480;2023-11-18T03:52:09;7.40;99.90
41630;DHT22;27322;49.488;8.480;2023-11-18T03:54:35;7.40;99.90
41630;DHT22;27322;49.488;8.480;2023-11-18T03:57:00;7.40;99.90
41630;DHT22;27322;49.488;8.480;2023-11-18T03:59:26;7.40;99.90
41630;DHT22;27322;49.488;8.480;2023-11-18T04:01:51;7.50;99.90
41630;DHT22;27322;49.488;8.480;2023-11-18T04:04:17;7.50;99.90
41630;DHT22;27322;49.488;8.480;2023-11-18T04:06:43;7.50;99.90
41630;DHT22;27322;49.488;8.480;2023-11-18T04:09:09;7.50;99.90
41630;DHT22;27322;49.488;8.480;2023-11-18T04:11:36;7.50;99.90
41630;DHT22;27322;49.488;8.480;2023-11-18T04:14:01;7.50;99.90
41630;DHT22;27322;49.488;8.480;2023-11-18T04:16:29;7.50;99.90
41630;DHT22;27322;49.488;8.480;2023-11-18T04:18:54;7.50;99.90
41630;DHT22;27322;49.488;8.480;2023-11-18T04:21:21;7.50;99.90
41630;DHT22;27322;49.488;8.480;2023-11-18T04:23:47;7.50;99.90
41630;DHT22;27322;49.488;8.480;2023-11-18T04:26:13;7.50;99.90
41630;DHT22;27322;49.488;8.480;2023-11-18T04:28:39;7.50;99.90
41630;DHT22;27322;49.488;8.480;2023-11-18T04:31:05;7.50;99.90
41630;DHT22;27322;49.488;8.480;2023-11-18T04:33:31;7.50;99.90
41630;DHT22;27322;49.488;8.480;2023-11-18T04:35:57;7.50;99.90
41630;DHT22;27322;49.488;8.480;2023-11-18T04:38:23;7.50;99.90
41630;DHT22;27322;49.488;8.480;2023-11-18T04:40:49;7.50;99.90
41630;DHT22;27322;49.488;8.480;2023-11-18T04:43:15;7.50;99.90
41630;DHT22;27322;49.488;8.480;2023-11-18T04:45:42;7.50;99.90
41630;DHT22;27322;49.488;8.480;2023-11-18T04:48:08;7.50;99.90
41630;DHT22;27322;49.488;8.480;2023-11-18T04:50:33;7.50;99.90
41630;DHT22;27322;49.488;8.480;2023-11-18T04:52:59;7.40;99.90
41630;DHT22;27322;49.488;8.480;2023-11-18T04:55:25;7.50;99.90
41630;DHT22;27322;49.488;8.480;2023-11-18T04:57:54;7.50;99.90
41630;DHT22;27322;49.488;8.480;2023-11-18T05:00:20;7.50;99.90
41630;DHT22;27322;49.488;8.480;2023-11-18T05:02:47;7.50;99.90
41630;DHT22;27322;49.488;8.480;2023-11-18T05:05:16;7.50;99.90
41630;DHT22;27322;49.488;8.480;2023-11-18T05:07:43;7.50;99.90
41630;DHT22;27322;49.488;8.480;2023-11-18T05:10:09;7.50;99.90
41630;DHT22;27322;49.488;8.480;2023-11-18T05:12:38;7.50;99.90
41630;DHT22;27322;49.488;8.480;2023-11-18T05:15:06;7.50;99.90
41630;DHT22;27322;49.488;8.480;2023-11-18T05:17:34;7.50;99.90
41630;DHT22;27322;49.488;8.480;2023-11-18T05:20:04;7.40;99.90
41630;DHT22;27322;49.488;8.480;2023-11-18T05:22:30;7.40;99.90
41630;DHT22;27322;49.488;8.480;2023-11-18T05:24:57;7.50;99.90
41630;DHT22;27322;49.488;8.480;2023-11-18T05:27:22;7.40;99.90
41630;DHT22;27322;49.488;8.480;2023-11-18T05:29:48;7.50;99.90
41630;DHT22;27322;49.488;8.480;2023-11-18T05:32:20;7.50;99.90
41630;DHT22;27322;49.488;8.480;2023-11-18T05:34:46;7.50;99.90
41630;DHT22;27322;49.488;8.480;2023-11-18T05:37:12;7.50;99.90
41630;DHT22;27322;49.488;8.480;2023-11-18T05:39:37;7.50;99.90
41630;DHT22;27322;49.488;8.480;2023-11-18T05:42:08;7.50;99.90
41630;DHT22;27322;49.488;8.480;2023-11-18T05:44:36;7.50;99.90
41630;DHT22;27322;49.488;8.480;2023-11-18T05:47:03;7.50;99.90
41630;DHT22;27322;49.488;8.480;2023-11-18T05:49:29;7.50;99.90
41630;DHT22;27322;49.488;8.480;2023-11-18T05:51:54;7.50;99.90
41630;DHT22;27322;49.488;8.480;2023-11-18T05:54:20;7.50;99.90
41630;DHT22;27322;49.488;8.480;2023-11-18T05:56:45;7.50;99.90
41630;DHT22;27322;49.488;8.480;2023-11-18T05:59:11;7.50;99.90
41630;DHT22;27322;49.488;8.480;2023-11-18T06:01:40;7.50;99.90
41630;DHT22;27322;49.488;8.480;2023-11-18T06:04:06;7.50;99.90
41630;DHT22;27322;49.488;8.480;2023-11-18T06:06:33;7.50;99.90
41630;DHT22;27322;49.488;8.480;2023-11-18T06:08:59;7.50;99.90
41630;DHT22;27322;49.488;8.480;2023-11-18T06:11:30;7.50;99.90
41630;DHT22;27322;49.488;8.480;2023-11-18T06:13:57;7.50;99.90
41630;DHT22;27322;49.488;8.480;2023-11-18T06:16:24;7.50;99.90
41630;DHT22;27322;49.488;8.480;2023-11-18T06:18:51;7.50;99.90
41630;DHT22;27322;49.488;8.480;2023-11-18T06:21:19;7.50;99.90
41630;DHT22;27322;49.488;8.480;2023-11-18T06:23:46;7.50;99.90
41630;DHT22;27322;49.488;8.480;2023-11-18T06:26:13;7.60;99.90
41630;DHT22;27322;49.488;8.480;2023-11-18T06:28:40;7.60;99.90
41630;DHT22;27322;49.488;8.480;2023-11-18T06:31:06;7.70;99.90
41630;DHT22;27322;49.488;8.480;2023-11-18T06:33:36;7.70;99.90
41630;DHT22;27322;49.488;8.480;2023-11-18T06:36:04;7.70;99.90
41630;DHT22;27322;49.488;8.480;2023-11-18T06:38:30;7.70;99.90
41630;DHT22;27322;49.488;8.480;2023-11-18T06:40:56;7.80;99.90
41630;DHT22;27322;49.488;8.480;2023-11-18T06:43:21;7.80;99.90
41630;DHT22;27322;49.488;8.480;2023-11-18T06:45:47;7.80;99.90
41630;DHT22;27322;49.488;8.480;2023-11-18T06:48:14;7.80;99.90
41630;DHT22;27322;49.488;8.480;2023-11-18T06:50:40;7.80;99.90
41630;DHT22;27322;49.488;8.480;2023-11-18T06:53:09;7.80;99.90
41630;DHT22;27322;49.488;8.480;2023-11-18T06:55:36;7.90;99.90
41630;DHT22;27322;49.488;8.480;2023-11-18T06:58:01;7.90;99.90
41630;DHT22;27322;49.488;8.480;2023-11-18T07:00:28;7.90;99.90
41630;DHT22;27322;49.488;8.480;2023-11-18T07:02:54;7.90;99.90
41630;DHT22;27322;49.488;8.480;2023-11-18T07:05:20;7.90;99.90
41630;DHT22;27322;49.488;8.480;2023-11-18T07:07:49;7.90;99.90
41630;DHT22;27322;49.488;8.480;2023-11-18T07:10:15;8.00;99.90
41630;DHT22;27322;49.488;8.480;2023-11-18T07:12:44;8.00;99.90
41630;DHT22;27322;49.488;8.480;2023-11-18T07:15:09;8.00;99.90
41630;DHT22;27322;49.488;8.480;2023-11-18T07:17:36;8.00;99.90
41630;DHT22;27322;49.488;8.480;2023-11-18T07:20:01;8.00;99.90
41630;DHT22;27322;49.488;8.480;2023-11-18T07:22:27;8.00;99.90
41630;DHT22;27322;49.488;8.480;2023-11-18T07:24:53;8.00;99.90
41630;DHT22;27322;49.488;8.480;2023-11-18T07:27:18;8.00;99.90
41630;DHT22;27322;49.488;8.480;2023-11-18T07:29:44;8.00;99.90
41630;DHT22;27322;49.488;8.480;2023-11-18T07:32:10;8.00;99.90
41630;DHT22;27322;49.488;8.480;2023-11-18T07:34:36;8.00;99.90
41630;DHT22;27322;49.488;8.480;2023-11-18T07:37:03;8.10;99.90
41630;DHT22;27322;49.488;8.480;2023-11-18T07:39:29;8.10;99.90
41630;DHT22;27322;49.488;8.480;2023-11-18T07:42:11;8.10;99.90
41630;DHT22;27322;49.488;8.480;2023-11-18T07:44:37;8.00;99.90
41630;DHT22;27322;49.488;8.480;2023-11-18T07:47:04;8.10;99.90
41630;DHT22;27322;49.488;8.480;2023-11-18T07:49:34;8.10;99.90
41630;DHT22;27322;49.488;8.480;2023-11-18T07:52:03;8.10;99.90
41630;DHT22;27322;49.488;8.480;2023-11-18T07:54:29;8.10;99.90
41630;DHT22;27322;49.488;8.480;2023-11-18T07:56:55;8.10;99.90
41630;DHT22;27322;49.488;8.480;2023-11-18T07:59:20;8.10;99.90
41630;DHT22;27322;49.488;8.480;2023-11-18T08:01:47;8.10;99.90
41630;DHT22;27322;49.488;8.480;2023-11-18T08:04:12;8.10;99.90
41630;DHT22;27322;49.488;8.480;2023-11-18T08:06:39;8.10;99.90
41630;DHT22;27322;49.488;8.480;2023-11-18T08:09:06;8.20;99.90
41630;DHT22;27322;49.488;8.480;2023-11-18T08:11:40;8.20;99.90
41630;DHT22;27322;49.488;8.480;2023-11-18T08:14:09;8.20;99.90
41630;DHT22;27322;49.488;8.480;2023-11-18T08:16:35;8.20;99.90
41630;DHT22;27322;49.488;8.480;2023-11-18T08:19:01;8.20;99.90
41630;DHT22;27322;49.488;8.480;2023-11-18T08:21:33;8.20;99.90
41630;DHT22;27322;49.488;8.480;2023-11-18T08:23:59;8.20;99.90
41630;DHT22;27322;49.488;8.480;2023-11-18T08:26:25;8.30;99.90
41630;DHT22;27322;49.488;8.480;2023-11-18T08:28:51;8.30;99.90
41630;DHT22;27322;49.488;8.480;2023-11-18T08:31:17;8.30;99.90
41630;DHT22;27322;49.488;8.480;2023-11-18T08:33:43;8.30;99.90
41630;DHT22;27322;49.488;8.480;2023-11-18T08:36:09;8.30;99.90
41630;DHT22;27322;49.488;8.480;2023-11-18T08:38:34;8.30;99.90
41630;DHT22;27322;49.488;8.480;2023-11-18T08:41:01;8.30;99.90
41630;DHT22;27322;49.488;8.480;2023-11-18T08:43:27;8.40;99.90
41630;DHT22;27322;49.488;8.480;2023-11-18T08:45:54;8.40;99.90
41630;DHT22;27322;49.488;8.480;2023-11-18T08:48:20;8.40;99.90
41630;DHT22;27322;49.488;8.480;2023-11-18T08:50:48;8.40;99.90
41630;DHT22;27322;49.488;8.480;2023-11-18T08:53:14;8.50;99.90
41630;DHT22;27322;49.488;8.480;2023-11-18T08:55:43;8.50;99.90
41630;DHT22;27322;49.488;8.480;2023-11-18T08:58:22;8.50;99.90
41630;DHT22;27322;49.488;8.480;2023-11-18T09:00:48;8.60;99.90
41630;DHT22;27322;49.488;8.480;2023-11-18T09:03:22;8.60;99.90
41630;DHT22;27322;49.488;8.480;2023-11-18T09:06:01;8.60;99.90
41630;DHT22;27322;49.488;8.480;2023-11-18T09:08:46;8.70;99.90
41630;DHT22;27322;49.488;8.480;2023-11-18T09:11:18;8.70;99.90
41630;DHT22;27322;49.488;8.480;2023-11-18T09:13:47;8.70;99.90
41630;DHT22;27322;49.488;8.480;2023-11-18T09:16:15;8.70;99.90
41630;DHT22;27322;49.488;8.480;2023-11-18T09:18:42;8.80;99.90
41630;DHT22;27322;49.488;8.480;2023-11-18T09:21:10;8.80;99.90
41630;DHT22;27322;49.488;8.480;2023-11-18T09:23:45;8.80;99.90
41630;DHT22;27322;49.488;8.480;2023-11-18T09:26:13;8.90;99.90
41630;DHT22;27322;49.488;8.480;2023-11-18T09:28:40;8.90;99.90
41630;DHT22;27322;49.488;8.480;2023-11-18T09:31:06;8.90;99.90
41630;DHT22;27322;49.488;8.480;2023-11-18T09:33:37;8.90;99.90
41630;DHT22;27322;49.488;8.480;2023-11-18T09:36:06;8.90;99.90
41630;DHT22;27322;49.488;8.480;2023-11-18T09:38:41;8.90;99.90
41630;DHT22;27322;49.488;8.480;2023-11-18T09:41:08;8.90;99.90
41630;DHT22;27322;49.488;8.480;2023-11-18T09:43:37;9.00;99.90
41630;DHT22;27322;49.488;8.480;2023-11-18T09:46:17;9.00;99.90
41630;DHT22;27322;49.488;8.480;2023-11-18T09:48:48;9.00;99.90
41630;DHT22;27322;49.488;8.480;2023-11-18T09:51:24;9.00;99.90
41630;DHT22;27322;49.488;8.480;2023-11-18T09:54:12;9.10;99.90
41630;DHT22;27322;49.488;8.480;2023-11-18T09:56:45;9.10;99.90
41630;DHT22;27322;49.488;8.480;2023-11-18T10:02:22;9.10;99.90
41630;DHT22;27322;49.488;8.480;2023-11-18T10:04:49;9.10;99.90
41630;DHT22;27322;49.488;8.480;2023-11-18T10:07:19;9.10;99.90
41630;DHT22;27322;49.488;8.480;2023-11-18T10:09:45;9.20;99.90
41630;DHT22;27322;49.488;8.480;2023-11-18T10:12:12;9.20;99.90
41630;DHT22;27322;49.488;8.480;2023-11-18T10:14:42;9.20;99.90
41630;DHT22;27322;49.488;8.480;2023-11-18T10:17:11;9.20;99.90
41630;DHT22;27322;49.488;8.480;2023-11-18T10:19:53;9.20;99.90
41630;DHT22;27322;49.488;8.480;2023-11-18T10:22:27;9.20;99.90
41630;DHT22;27322;49.488;8.480;2023-11-18T10:24:56;9.20;99.90
41630;DHT22;27322;49.488;8.480;2023-11-18T10:27:27;9.30;99.90
41630;DHT22;27322;49.488;8.480;2023-11-18T10:30:02;9.30;99.90
41630;DHT22;27322;49.488;8.480;2023-11-18T10:32:28;9.30;99.90
41630;DHT22;27322;49.488;8.480;2023-11-18T10:34:57;9.30;99.90
41630;DHT22;27322;49.488;8.480;2023-11-18T10:37:24;9.30;99.90
41630;DHT22;27322;49.488;8.480;2023-11-18T10:39:50;9.30;99.90
41630;DHT22;27322;49.488;8.480;2023-11-18T10:42:17;9.30;99.90
41630;DHT22;27322;49.488;8.480;2023-11-18T10:44:54;9.30;99.90
41630;DHT22;27322;49.488;8.480;2023-11-18T10:47:25;9.40;99.90
41630;DHT22;27322;49.488;8.480;2023-11-18T10:49:53;9.40;99.90
41630;DHT22;27322;49.488;8.480;2023-11-18T10:52:19;9.40;99.90
41630;DHT22;27322;49.488;8.480;2023-11-18T10:54:52;9.40;99.90
41630;DHT22;27322;49.488;8.480;2023-11-18T10:57:20;9.40;99.90
41630;DHT22;27322;49.488;8.480;2023-11-18T11:00:03;9.40;99.90
41630;DHT22;27322;49.488;8.480;2023-11-18T11:02:33;9.40;99.90
41630;DHT22;27322;49.488;8.480;2023-11-18T11:05:05;9.40;99.90
41630;DHT22;27322;49.488;8.480;2023-11-18T11:07:32;9.40;99.90
41630;DHT22;27322;49.488;8.480;2023-11-18T11:09:59;9.40;99.90
41630;DHT22;27322;49.488;8.480;2023-11-18T11:12:33;9.40;99.90
41630;DHT22;27322;49.488;8.480;2023-11-18T11:15:08;9.50;99.90
41630;DHT22;27322;49.488;8.480;2023-11-18T11:17:40;9.40;99.90
41630;DHT22;27322;49.488;8.480;2023-11-18T11:20:08;9.40;99.90
41630;DHT22;27322;49.488;8.480;2023-11-18T11:26:02;9.50;99.90
41630;DHT22;27322;49.488;8.480;2023-11-18T11:28:46;9.50;99.90
41630;DHT22;27322;49.488;8.480;2023-11-18T11:31:23;9.50;99.90
41630;DHT22;27322;49.488;8.480;2023-11-18T11:34:04;9.50;99.90
41630;DHT22;27322;49.488;8.480;2023-11-18T11:36:53;9.50;99.90
41630;DHT22;27322;49.488;8.480;2023-11-18T11:39:20;9.50;99.90
41630;DHT22;27322;49.488;8.480;2023-11-18T11:41:56;9.50;99.90
41630;DHT22;27322;49.488;8.480;2023-11-18T11:44:22;9.50;99.90
41630;DHT22;27322;49.488;8.480;2023-11-18T11:46:56;9.60;99.90
41630;DHT22;27322;49.488;8.480;2023-11-18T11:49:26;9.50;99.90
41630;DHT22;27322;49.488;8.480;2023-11-18T11:54:48;9.60;99.90
41630;DHT22;27322;49.488;8.480;2023-11-18T11:57:16;9.60;99.90
41630;DHT22;27322;49.488;8.480;2023-11-18T12:02:13;9.60;99.90
41630;DHT22;27322;49.488;8.480;2023-11-18T12:04:45;9.60;99.90
41630;DHT22;27322;49.488;8.480;2023-11-18T12:07:11;9.60;99.90
41630;DHT22;27322;49.488;8.480;2023-11-18T12:09:41;9.60;99.90
41630;DHT22;27322;49.488;8.480;2023-11-18T12:12:21;9.60;99.90
41630;DHT22;27322;49.488;8.480;2023-11-18T12:14:50;9.60;99.90
41630;DHT22;27322;49.488;8.480;2023-11-18T12:17:18;9.60;99.90
41630;DHT22;27322;49.488;8.480;2023-11-18T12:19:50;9.60;99.90
41630;DHT22;27322;49.488;8.480;2023-11-18T12:22:22;9.60;99.90
41630;DHT22;27322;49.488;8.480;2023-11-18T12:27:45;9.60;99.90
41630;DHT22;27322;49.488;8.480;2023-11-18T12:32:58;9.60;99.90
41630;DHT22;27322;49.488;8.480;2023-11-18T12:35:25;9.50;99.90
41630;DHT22;27322;49.488;8.480;2023-11-18T12:40:54;9.60;99.90
41630;DHT22;27322;49.488;8.480;2023-11-18T12:43:49;9.60;99.90
41630;DHT22;27322;49.488;8.480;2023-11-18T12:49:14;9.60;99.90
41630;DHT22;27322;49.488;8.480;2023-11-18T12:51:40;9.50;99.90
41630;DHT22;27322;49.488;8.480;2023-11-18T12:54:09;9.50;99.90
41630;DHT22;27322;49.488;8.480;2023-11-18T12:56:38;9.50;99.90
41630;DHT22;27322;49.488;8.480;2023-11-18T12:59:09;9.50;99.90
41630;DHT22;27322;49.488;8.480;2023-11-18T13:01:38;9.50;99.90
41630;DHT22;27322;49.488;8.480;2023-11-18T13:04:07;9.50;99.90
41630;DHT22;27322;49.488;8.480;2023-11-18T13:06:34;9.50;99.90
41630;DHT22;27322;49.488;8.480;2023-11-18T13:09:00;9.50;99.90
41630;DHT22;27322;49.488;8.480;2023-11-18T13:11:35;9.60;99.90
41630;DHT22;27322;49.488;8.480;2023-11-18T13:14:00;9.60;99.90
41630;DHT22;27322;49.488;8.480;2023-11-18T13:16:28;9.60;99.90
41630;DHT22;27322;49.488;8.480;2023-11-18T13:18:53;9.60;99.90
41630;DHT22;27322;49.488;8.480;2023-11-18T13:21:21;9.60;99.90
41630;DHT22;27322;49.488;8.480;2023-11-18T13:23:49;9.50;99.90
41630;DHT22;27322;49.488;8.480;2023-11-18T13:26:19;9.60;99.90
41630;DHT22;27322;49.488;8.480;2023-11-18T13:28:46;9.60;99.90
41630;DHT22;27322;49.488;8.480;2023-11-18T13:31:12;9.60;99.90
41630;DHT22;27322;49.488;8.480;2023-11-18T13:33:43;9.60;99.90
41630;DHT22;27322;49.488;8.480;2023-11-18T13:36:09;9.60;99.90
41630;DHT22;27322;49.488;8.480;2023-11-18T13:38:39;9.60;99.90
41630;DHT22;27322;49.488;8.480;2023-11-18T13:41:05;9.60;99.90
41630;DHT22;27322;49.488;8.480;2023-11-18T13:43:44;9.60;99.90
41630;DHT22;27322;49.488;8.480;2023-11-18T13:46:11;9.60;99.90
41630;DHT22;27322;49.488;8.480;2023-11-18T13:48:38;9.60;99.90
41630;DHT22;27322;49.488;8.480;2023-11-18T13:51:12;9.60;99.90
41630;DHT22;27322;49.488;8.480;2023-11-18T13:53:39;9.60;99.90
41630;DHT22;27322;49.488;8.480;2023-11-18T13:56:12;9.70;99.90
41630;DHT22;27322;49.488;8.480;2023-11-18T13:58:39;9.70;99.90
41630;DHT22;27322;49.488;8.480;2023-11-18T14:01:06;9.70;99.90
41630;DHT22;27322;49.488;8.480;2023-11-18T14:03:35;9.70;99.90
41630;DHT22;27322;49.488;8.480;2023-11-18T14:06:05;9.70;99.90
41630;DHT22;27322;49.488;8.480;2023-11-18T14:08:31;9.70;99.90
41630;DHT22;27322;49.488;8.480;2023-11-18T14:10:57;9.70;99.90
41630;DHT22;27322;49.488;8.480;2023-11-18T14:13:23;9.70;99.90
41630;DHT22;27322;49.488;8.480;2023-11-18T14:15:48;9.70;99.90
41630;DHT22;27322;49.488;8.480;2023-11-18T14:18:20;9.70;99.90
41630;DHT22;27322;49.488;8.480;2023-11-18T14:20:46;9.60;99.90
41630;DHT22;27322;49.488;8.480;2023-11-18T14:23:13;9.70;99.90
41630;DHT22;27322;49.488;8.480;2023-11-18T14:25:39;9.70;99.90
41630;DHT22;27322;49.488;8.480;2023-11-18T14:28:05;9.70;99.90
41630;DHT22;27322;49.488;8.480;2023-11-18T14:30:30;9.70;99.90
41630;DHT22;27322;49.488;8.480;2023-11-18T14:32:56;9.60;99.90
41630;DHT22;27322;49.488;8.480;2023-11-18T14:35:21;9.60;99.90
41630;DHT22;27322;49.488;8.480;2023-11-18T14:37:48;9.70;99.90
41630;DHT22;27322;49.488;8.480;2023-11-18T14:40:14;9.60;99.90
41630;DHT22;27322;49.488;8.480;2023-11-18T14:42:45;9.60;99.90
41630;DHT22;27322;49.488;8.480;2023-11-18T14:45:12;9.60;99.90
41630;DHT22;27322;49.488;8.480;2023-11-18T14:47:42;9.70;99.90
41630;DHT22;27322;49.488;8.480;2023-11-18T14:50:10;9.70;99.90
41630;DHT22;27322;49.488;8.480;2023-11-18T14:52:46;9.70;99.90
41630;DHT22;27322;49.488;8.480;2023-11-18T14:55:12;9.70;99.90
41630;DHT22;27322;49.488;8.480;2023-11-18T14:57:41;9.70;99.90
41630;DHT22;27322;49.488;8.480;2023-11-18T15:00:10;9.70;99.90
41630;DHT22;27322;49.488;8.480;2023-11-18T15:02:48;9.70;99.90
41630;DHT22;27322;49.488;8.480;2023-11-18T15:05:15;9.70;99.90
41630;DHT22;27322;49.488;8.480;2023-11-18T15:07:44;9.70;99.90
41630;DHT22;27322;49.488;8.480;2023-11-18T15:10:10;9.70;99.90
41630;DHT22;27322;49.488;8.480;2023-11-18T15:12:36;9.70;99.90
41630;DHT22;27322;49.488;8.480;2023-11-18T15:15:03;9.70;99.90
41630;DHT22;27322;49.488;8.480;2023-11-18T15:17:29;9.70;99.90
41630;DHT22;27322;49.488;8.480;2023-11-18T15:19:55;9.70;99.90
41630;DHT22;27322;49.488;8.480;2023-11-18T15:22:21;9.70;99.90
41630;DHT22;27322;49.488;8.480;2023-11-18T15:24:48;9.70;99.90
41630;DHT22;27322;49.488;8.480;2023-11-18T15:27:14;9.70;99.90
41630;DHT22;27322;49.488;8.480;2023-11-18T15:29:40;9.60;99.90
41630;DHT22;27322;49.488;8.480;2023-11-18T15:32:16;9.60;99.90
41630;DHT22;27322;49.488;8.480;2023-11-18T15:34:42;9.70;99.90
41630;DHT22;27322;49.488;8.480;2023-11-18T15:37:07;9.70;99.90
41630;DHT22;27322;49.488;8.480;2023-11-18T15:39:34;9.60;99.90
41630;DHT22;27322;49.488;8.480;2023-11-18T15:42:00;9.60;99.90
41630;DHT22;27322;49.488;8.480;2023-11-18T15:44:26;9.70;99.90
41630;DHT22;27322;49.488;8.480;2023-11-18T15:46:54;9.70;99.90
41630;DHT22;27322;49.488;8.480;2023-11-18T15:49:19;9.60;99.90
41630;DHT22;27322;49.488;8.480;2023-11-18T15:51:45;9.70;99.90
41630;DHT22;27322;49.488;8.480;2023-11-18T15:54:11;9.70;99.90
41630;DHT22;27322;49.488;8.480;2023-11-18T15:56:40;9.70;99.90
41630;DHT22;27322;49.488;8.480;2023-11-18T15:59:08;9.60;99.90
41630;DHT22;27322;49.488;8.480;2023-11-18T16:01:34;9.60;99.90
41630;DHT22;27322;49.488;8.480;2023-11-18T16:04:00;9.60;99.90
41630;DHT22;27322;49.488;8.480;2023-11-18T16:06:26;9.60;99.90
41630;DHT22;27322;49.488;8.480;2023-11-18T16:08:51;9.60;99.90
41630;DHT22;27322;49.488;8.480;2023-11-18T16:11:17;9.60;99.90
41630;DHT22;27322;49.488;8.480;2023-11-18T16:13:43;9.60;99.90